createdAt,value
2018-09-29T00:02:07.631Z,6.97
2018-09-29T00:04:36.657Z,7.00
2018-09-29T00:07:05.451Z,6.96
2018-09-29T00:09:34.209Z,6.92
2018-09-29T00:12:05.947Z,6.89
2018-09-29T00:14:34.830Z,6.87
2018-09-29T00:17:04.004Z,6.86
2018-09-29T00:19:33.086Z,6.84
2018-09-29T00:22:01.839Z,6.79
2018-09-29T00:24:31.072Z,6.77
2018-09-29T00:27:00.355Z,6.75
2018-09-29T00:29:29.796Z,6.73
2018-09-29T00:31:58.723Z,6.67
2018-09-29T00:34:27.881Z,6.68
2018-09-29T00:36:56.655Z,6.65
2018-09-29T00:39:25.470Z,6.62
2018-09-29T00:41:54.542Z,6.60
2018-09-29T00:44:23.550Z,6.59
2018-09-29T00:46:52.808Z,6.59
2018-09-29T00:49:21.866Z,6.59
2018-09-29T00:51:50.935Z,6.58
2018-09-29T00:54:19.941Z,6.58
2018-09-29T00:56:48.838Z,6.57
2018-09-29T00:59:17.901Z,6.57
2018-09-29T01:01:47.603Z,6.50
2018-09-29T01:04:16.941Z,6.53
2018-09-29T01:06:45.834Z,6.50
2018-09-29T01:09:14.786Z,6.51
2018-09-29T01:11:43.758Z,6.50
2018-09-29T01:14:12.751Z,6.51
2018-09-29T01:16:41.777Z,6.46
2018-09-29T01:19:10.845Z,6.45
2018-09-29T01:21:39.819Z,6.39
2018-09-29T01:24:08.626Z,6.39
2018-09-29T01:26:37.545Z,6.37
2018-09-29T01:29:06.475Z,6.28
2018-09-29T01:31:35.432Z,6.28
2018-09-29T01:34:04.712Z,6.26
2018-09-29T01:36:33.763Z,6.25
2018-09-29T01:39:03.278Z,6.21
2018-09-29T01:41:32.338Z,6.18
2018-09-29T01:44:01.284Z,6.15
2018-09-29T01:46:30.561Z,6.08
2018-09-29T01:48:59.370Z,6.10
2018-09-29T01:51:28.261Z,6.07
2018-09-29T01:53:58.095Z,6.02
2018-09-29T01:56:26.991Z,6.01
2018-09-29T01:58:56.614Z,6.00
2018-09-29T02:01:26.199Z,5.98
2018-09-29T02:03:55.132Z,5.97
2018-09-29T02:06:24.277Z,5.96
2018-09-29T02:08:53.219Z,5.92
2018-09-29T02:11:22.189Z,5.91
2018-09-29T02:13:51.166Z,5.89
2018-09-29T02:16:20.927Z,5.89
2018-09-29T02:18:50.621Z,5.90
2018-09-29T02:21:19.603Z,5.88
2018-09-29T02:23:48.381Z,5.84
2018-09-29T02:26:17.702Z,5.83
2018-09-29T02:28:46.985Z,5.80
2018-09-29T02:31:16.247Z,5.73
2018-09-29T02:33:45.439Z,5.76
2018-09-29T02:36:14.440Z,5.77
2018-09-29T02:38:43.558Z,5.77
2018-09-29T02:41:12.591Z,5.78
2018-09-29T02:43:41.430Z,5.79
2018-09-29T02:46:10.749Z,5.78
2018-09-29T02:48:39.573Z,5.79
2018-09-29T02:51:08.475Z,5.80
2018-09-29T02:53:37.268Z,5.82
2018-09-29T02:56:06.767Z,5.82
2018-09-29T02:58:35.621Z,5.85
2018-09-29T03:01:04.681Z,5.86
2018-09-29T03:03:33.624Z,5.85
2018-09-29T03:06:02.456Z,5.84
2018-09-29T03:08:31.643Z,5.85
2018-09-29T03:11:00.832Z,5.83
2018-09-29T03:13:30.696Z,5.84
2018-09-29T03:15:59.538Z,5.79
2018-09-29T03:18:28.505Z,5.77
2018-09-29T03:20:57.495Z,5.76
2018-09-29T03:23:26.279Z,5.75
2018-09-29T03:25:55.175Z,5.74
2018-09-29T03:28:23.993Z,5.73
2018-09-29T03:30:52.881Z,5.71
2018-09-29T03:33:22.534Z,5.71
2018-09-29T03:35:51.374Z,5.76
2018-09-29T03:38:20.247Z,5.78
2018-09-29T03:40:49.008Z,5.81
2018-09-29T03:43:17.934Z,5.79
2018-09-29T03:45:46.710Z,5.78
2018-09-29T03:48:15.507Z,5.76
2018-09-29T03:50:44.595Z,5.74
2018-09-29T03:53:13.459Z,5.72
2018-09-29T03:55:42.941Z,5.69
2018-09-29T03:58:11.767Z,5.70
2018-09-29T04:00:40.896Z,5.70
2018-09-29T04:03:09.664Z,5.69
2018-09-29T04:05:39.010Z,5.68
2018-09-29T04:08:08.199Z,5.66
2018-09-29T04:10:37.682Z,5.64
2018-09-29T04:13:06.575Z,5.64
2018-09-29T04:15:36.105Z,5.62
2018-09-29T04:18:04.953Z,5.60
2018-09-29T04:20:34.032Z,5.60
2018-09-29T04:23:03.175Z,5.59
2018-09-29T04:25:32.534Z,5.57
2018-09-29T04:28:01.883Z,5.57
2018-09-29T04:30:30.998Z,5.58
2018-09-29T04:33:00.039Z,5.53
2018-09-29T04:35:29.042Z,5.51
2018-09-29T04:37:57.957Z,5.51
2018-09-29T04:40:26.713Z,5.52
2018-09-29T04:42:55.496Z,5.52
2018-09-29T04:45:24.223Z,5.52
2018-09-29T04:47:53.393Z,5.51
2018-09-29T04:50:22.625Z,5.50
2018-09-29T04:52:51.799Z,5.48
2018-09-29T04:55:21.077Z,5.48
2018-09-29T04:57:49.829Z,5.48
2018-09-29T05:00:18.614Z,5.48
2018-09-29T05:02:47.470Z,5.45
2018-09-29T05:05:16.566Z,5.44
2018-09-29T05:07:45.510Z,5.46
2018-09-29T05:10:14.597Z,5.44
2018-09-29T05:12:43.390Z,5.43
2018-09-29T05:15:12.496Z,5.43
2018-09-29T05:17:41.619Z,5.43
2018-09-29T05:20:10.370Z,5.44
2018-09-29T05:22:39.591Z,5.43
2018-09-29T05:25:08.366Z,5.41
2018-09-29T05:27:37.485Z,5.41
2018-09-29T05:30:08.431Z,5.40
2018-09-29T05:32:37.272Z,5.39
2018-09-29T05:35:06.446Z,5.38
2018-09-29T05:37:35.289Z,5.38
2018-09-29T05:40:04.269Z,5.39
2018-09-29T05:42:33.031Z,5.40
2018-09-29T05:45:02.014Z,5.40
2018-09-29T05:47:31.116Z,5.41
2018-09-29T05:50:00.462Z,5.41
2018-09-29T05:52:29.523Z,5.41
2018-09-29T05:54:58.890Z,5.40
2018-09-29T05:57:28.289Z,5.40
2018-09-29T05:59:57.797Z,5.41
2018-09-29T06:02:26.982Z,5.41
2018-09-29T06:04:55.777Z,5.43
2018-09-29T06:07:24.647Z,5.44
2018-09-29T06:09:54.090Z,5.46
2018-09-29T06:12:22.814Z,5.48
2018-09-29T06:14:52.761Z,5.53
2018-09-29T06:17:22.654Z,5.56
2018-09-29T06:19:51.995Z,5.60
2018-09-29T06:22:20.743Z,5.65
2018-09-29T06:24:49.607Z,5.67
2018-09-29T06:27:18.459Z,5.70
2018-09-29T06:29:47.319Z,5.76
2018-09-29T06:32:16.474Z,5.82
2018-09-29T06:34:45.285Z,5.86
2018-09-29T06:37:14.336Z,5.92
2018-09-29T06:39:43.465Z,5.98
2018-09-29T06:42:12.263Z,6.05
2018-09-29T06:44:41.083Z,6.09
2018-09-29T06:47:10.384Z,6.13
2018-09-29T06:49:39.556Z,6.19
2018-09-29T06:52:08.342Z,6.24
2018-09-29T06:54:37.718Z,6.31
2018-09-29T06:57:06.450Z,6.38
2018-09-29T06:59:35.247Z,6.46
2018-09-29T07:02:04.083Z,6.53
2018-09-29T07:04:33.119Z,6.60
2018-09-29T07:07:01.927Z,6.71
2018-09-29T07:09:30.768Z,6.82
2018-09-29T07:11:59.920Z,6.92
2018-09-29T07:14:28.744Z,7.03
2018-09-29T07:16:57.810Z,7.14
2018-09-29T07:19:26.977Z,7.25
2018-09-29T07:21:55.850Z,7.35
2018-09-29T07:24:24.667Z,7.46
2018-09-29T07:26:53.834Z,7.59
2018-09-29T07:29:22.726Z,7.74
2018-09-29T07:31:51.637Z,7.86
2018-09-29T07:34:20.901Z,8.00
2018-09-29T07:36:50.396Z,8.11
2018-09-29T07:39:19.632Z,8.30
2018-09-29T07:41:48.437Z,8.43
2018-09-29T07:44:17.628Z,8.54
2018-09-29T07:46:46.663Z,8.66
2018-09-29T07:49:15.623Z,8.78
2018-09-29T07:51:46.509Z,8.92
2018-09-29T07:54:15.651Z,9.07
2018-09-29T07:56:44.400Z,9.21
2018-09-29T07:59:13.165Z,9.37
2018-09-29T08:01:42.164Z,9.56
2018-09-29T08:04:10.976Z,9.75
2018-09-29T08:06:39.818Z,9.97
2018-09-29T08:09:08.718Z,10.20
2018-09-29T08:11:37.574Z,10.44
2018-09-29T08:14:06.331Z,10.69
2018-09-29T08:16:35.091Z,10.91
2018-09-29T08:19:03.882Z,11.16
2018-09-29T08:21:32.635Z,11.41
2018-09-29T08:24:01.698Z,11.66
2018-09-29T08:26:30.507Z,11.92
2018-09-29T08:28:59.991Z,12.11
2018-09-29T08:31:28.767Z,12.38
2018-09-29T08:33:57.664Z,12.63
2018-09-29T08:36:26.409Z,12.90
2018-09-29T08:38:55.178Z,13.09
2018-09-29T08:41:23.984Z,13.33
2018-09-29T08:43:52.758Z,13.58
2018-09-29T08:46:21.844Z,13.78
2018-09-29T08:48:50.625Z,13.89
2018-09-29T08:51:19.629Z,14.01
2018-09-29T08:53:48.463Z,14.12
2018-09-29T08:56:17.285Z,14.26
2018-09-29T08:58:46.045Z,14.33
2018-09-29T09:01:15.149Z,14.42
2018-09-29T09:03:44.444Z,14.55
2018-09-29T09:06:13.341Z,14.69
2018-09-29T09:08:42.111Z,14.85
2018-09-29T09:11:11.390Z,14.98
2018-09-29T09:13:40.447Z,15.09
2018-09-29T09:16:09.878Z,15.24
2018-09-29T09:18:39.092Z,15.35
2018-09-29T09:21:07.879Z,15.49
2018-09-29T09:23:41.781Z,15.59
2018-09-29T09:26:10.530Z,15.76
2018-09-29T09:28:39.331Z,15.97
2018-09-29T09:31:08.501Z,16.12
2018-09-29T09:33:38.126Z,16.27
2018-09-29T09:36:08.341Z,16.43
2018-09-29T09:38:37.465Z,16.52
2018-09-29T09:41:06.233Z,16.59
2018-09-29T09:43:35.354Z,16.57
2018-09-29T09:46:04.091Z,16.55
2018-09-29T09:48:32.851Z,16.55
2018-09-29T09:51:01.938Z,16.58
2018-09-29T09:53:31.063Z,16.54
2018-09-29T09:56:00.550Z,16.60
2018-09-29T09:58:29.329Z,16.70
2018-09-29T10:01:03.301Z,16.87
2018-09-29T10:03:34.954Z,17.01
2018-09-29T10:06:03.745Z,17.16
2018-09-29T10:08:32.593Z,17.30
2018-09-29T10:11:01.805Z,17.54
2018-09-29T10:13:30.671Z,17.73
2018-09-29T10:15:59.798Z,17.80
2018-09-29T10:18:28.620Z,17.96
2018-09-29T10:20:57.453Z,18.09
2018-09-29T10:23:26.219Z,18.23
2018-09-29T10:25:54.986Z,18.32
2018-09-29T10:28:23.847Z,18.52
2018-09-29T10:30:52.691Z,18.76
2018-09-29T10:33:21.543Z,19.00
2018-09-29T10:35:50.717Z,19.14
2018-09-29T10:38:19.846Z,19.20
2018-09-29T10:40:49.476Z,19.27
2018-09-29T10:43:18.489Z,19.47
2018-09-29T10:45:47.270Z,19.61
2018-09-29T10:48:16.497Z,19.80
2018-09-29T10:50:45.524Z,19.97
2018-09-29T10:53:14.616Z,19.95
2018-09-29T10:55:43.714Z,19.79
2018-09-29T10:58:12.994Z,19.62
2018-09-29T11:00:41.787Z,19.51
2018-09-29T11:03:10.598Z,19.38
2018-09-29T11:05:39.422Z,19.37
2018-09-29T11:08:08.244Z,19.51
2018-09-29T11:10:37.218Z,19.67
2018-09-29T11:13:06.371Z,19.77
2018-09-29T11:15:35.458Z,19.87
2018-09-29T11:18:04.205Z,19.73
2018-09-29T11:20:33.417Z,19.91
2018-09-29T11:23:02.731Z,20.07
2018-09-29T11:25:31.806Z,20.02
2018-09-29T11:28:00.590Z,20.03
2018-09-29T11:30:29.340Z,20.27
2018-09-29T11:32:58.372Z,20.33
2018-09-29T11:35:27.191Z,20.34
2018-09-29T11:37:56.273Z,20.31
2018-09-29T11:40:25.272Z,20.56
2018-09-29T11:42:54.068Z,21.01
2018-09-29T11:45:22.842Z,21.41
2018-09-29T11:47:51.617Z,21.59
2018-09-29T11:50:20.712Z,21.68
2018-09-29T11:52:53.806Z,21.54
2018-09-29T11:55:22.998Z,21.30
2018-09-29T11:57:51.750Z,21.02
2018-09-29T12:00:20.537Z,20.86
2018-09-29T12:02:49.672Z,20.85
2018-09-29T12:05:18.805Z,20.98
2018-09-29T12:07:47.571Z,21.19
2018-09-29T12:10:16.834Z,21.45
2018-09-29T12:12:46.135Z,21.75
2018-09-29T12:15:15.751Z,21.98
2018-09-29T12:17:44.507Z,22.33
2018-09-29T12:20:13.247Z,22.49
2018-09-29T12:22:42.041Z,22.54
2018-09-29T12:25:10.819Z,22.68
2018-09-29T12:27:39.652Z,22.77
2018-09-29T12:30:08.830Z,22.95
2018-09-29T12:32:37.827Z,22.98
2018-09-29T12:35:07.009Z,23.16
2018-09-29T12:37:36.199Z,23.12
2018-09-29T12:40:05.681Z,23.02
2018-09-29T12:42:34.884Z,22.69
2018-09-29T12:45:03.893Z,22.53
2018-09-29T12:47:32.808Z,22.37
2018-09-29T12:50:01.836Z,22.38
2018-09-29T12:52:30.964Z,22.34
2018-09-29T12:54:59.810Z,22.45
2018-09-29T12:57:28.582Z,22.50
2018-09-29T12:59:57.400Z,22.54
2018-09-29T13:02:26.217Z,22.50
2018-09-29T13:04:54.938Z,22.38
2018-09-29T13:07:23.988Z,22.45
2018-09-29T13:09:53.451Z,22.46
2018-09-29T13:12:22.252Z,22.61
2018-09-29T13:14:51.009Z,22.74
2018-09-29T13:17:20.296Z,22.70
2018-09-29T13:19:49.043Z,22.71
2018-09-29T13:22:18.198Z,22.94
2018-09-29T13:24:47.827Z,23.13
2018-09-29T13:27:16.578Z,23.33
2018-09-29T13:29:45.713Z,23.54
2018-09-29T13:32:14.551Z,23.46
2018-09-29T13:34:43.441Z,23.37
2018-09-29T13:37:12.941Z,23.29
2018-09-29T13:39:41.997Z,23.14
2018-09-29T13:42:10.802Z,23.07
2018-09-29T13:44:39.570Z,23.17
2018-09-29T13:47:08.642Z,23.16
2018-09-29T13:49:37.921Z,23.16
2018-09-29T13:52:07.116Z,23.20
2018-09-29T13:54:36.247Z,23.41
2018-09-29T13:57:05.151Z,23.55
2018-09-29T13:59:33.921Z,23.63
2018-09-29T14:02:02.780Z,23.73
2018-09-29T14:04:32.654Z,23.98
2018-09-29T14:07:01.744Z,24.30
2018-09-29T14:09:30.544Z,24.43
2018-09-29T14:11:59.308Z,24.42
2018-09-29T14:14:28.440Z,24.13
2018-09-29T14:16:57.219Z,23.96
2018-09-29T14:19:26.781Z,23.64
2018-09-29T14:21:56.210Z,23.36
2018-09-29T14:24:25.181Z,23.30
2018-09-29T14:26:53.926Z,23.40
2018-09-29T14:29:23.009Z,23.63
2018-09-29T14:31:52.680Z,23.93
2018-09-29T14:34:21.925Z,24.06
2018-09-29T14:36:51.082Z,24.16
2018-09-29T14:39:20.457Z,24.24
2018-09-29T14:41:49.353Z,24.03
2018-09-29T14:44:18.174Z,23.36
2018-09-29T14:46:46.950Z,22.95
2018-09-29T14:49:16.076Z,22.75
2018-09-29T14:51:45.055Z,22.67
2018-09-29T14:54:13.837Z,22.80
2018-09-29T14:56:42.580Z,22.94
2018-09-29T14:59:11.697Z,22.94
2018-09-29T15:01:40.467Z,22.82
2018-09-29T15:04:09.996Z,22.44
2018-09-29T15:06:38.985Z,22.04
2018-09-29T15:09:10.757Z,21.66
2018-09-29T15:11:39.600Z,21.33
2018-09-29T15:14:08.916Z,21.00
2018-09-29T15:16:37.922Z,20.86
2018-09-29T15:19:07.328Z,20.79
2018-09-29T15:21:36.421Z,20.62
2018-09-29T15:24:05.409Z,20.51
2018-09-29T15:26:34.368Z,20.33
2018-09-29T15:29:03.245Z,20.20
2018-09-29T15:31:32.639Z,20.03
2018-09-29T15:34:02.059Z,19.78
2018-09-29T15:36:31.047Z,19.56
2018-09-29T15:38:59.902Z,19.25
2018-09-29T15:41:28.691Z,19.04
2018-09-29T15:43:57.518Z,18.83
2018-09-29T15:46:26.642Z,18.73
2018-09-29T15:48:55.368Z,18.68
2018-09-29T15:51:24.243Z,18.66
2018-09-29T15:53:53.087Z,18.63
2018-09-29T15:56:22.223Z,18.54
2018-09-29T15:58:51.170Z,18.48
2018-09-29T16:01:20.090Z,18.42
2018-09-29T16:03:49.031Z,18.38
2018-09-29T16:06:18.436Z,18.27
2018-09-29T16:08:47.976Z,18.23
2018-09-29T16:11:16.760Z,18.33
2018-09-29T16:13:46.134Z,18.36
2018-09-29T16:16:14.887Z,18.19
2018-09-29T16:18:43.675Z,18.03
2018-09-29T16:21:12.562Z,17.90
2018-09-29T16:23:41.802Z,17.82
2018-09-29T16:26:10.547Z,17.73
2018-09-29T16:28:39.325Z,17.69
2018-09-29T16:31:08.437Z,17.62
2018-09-29T16:33:37.193Z,17.52
2018-09-29T16:36:06.279Z,17.41
2018-09-29T16:38:35.123Z,17.40
2018-09-29T16:41:03.900Z,17.37
2018-09-29T16:43:33.169Z,17.35
2018-09-29T16:46:01.941Z,17.36
2018-09-29T16:48:30.761Z,17.38
2018-09-29T16:50:59.851Z,17.31
2018-09-29T16:53:28.671Z,17.29
2018-09-29T16:55:57.843Z,17.29
2018-09-29T16:58:26.570Z,17.29
2018-09-29T17:00:56.241Z,17.26
2018-09-29T17:03:25.060Z,17.21
2018-09-29T17:05:53.983Z,17.16
2018-09-29T17:08:23.143Z,17.10
2018-09-29T17:10:52.246Z,17.04
2018-09-29T17:13:20.973Z,16.98
2018-09-29T17:15:52.209Z,16.89
2018-09-29T17:18:22.163Z,16.81
2018-09-29T17:20:51.937Z,16.74
2018-09-29T17:23:21.800Z,16.66
2018-09-29T17:25:51.962Z,16.57
2018-09-29T17:28:22.437Z,16.48
2018-09-29T17:30:51.801Z,16.38
2018-09-29T17:33:20.601Z,16.28
2018-09-29T17:35:49.632Z,16.18
2018-09-29T17:38:18.732Z,16.06
2018-09-29T17:40:47.767Z,15.95
2018-09-29T17:43:16.916Z,15.85
2018-09-29T17:45:46.311Z,15.74
2018-09-29T17:48:15.557Z,15.63
2018-09-29T17:50:44.793Z,15.53
2018-09-29T17:53:13.887Z,15.43
2018-09-29T17:55:43.027Z,15.32
2018-09-29T17:58:12.273Z,15.21
2018-09-29T18:00:41.019Z,15.07
2018-09-29T18:03:10.100Z,15.00
2018-09-29T18:05:39.814Z,14.90
2018-09-29T18:08:09.034Z,14.79
2018-09-29T18:10:38.224Z,14.67
2018-09-29T18:13:07.224Z,14.56
2018-09-29T18:15:35.959Z,14.46
2018-09-29T18:18:04.750Z,14.35
2018-09-29T18:20:33.696Z,14.21
2018-09-29T18:23:02.723Z,14.11
2018-09-29T18:25:31.640Z,14.00
2018-09-29T18:28:00.400Z,13.92
2018-09-29T18:30:29.527Z,13.81
2018-09-29T18:32:58.360Z,13.72
2018-09-29T18:35:27.707Z,13.65
2018-09-29T18:37:56.736Z,13.55
2018-09-29T18:40:25.473Z,13.42
2018-09-29T18:42:54.262Z,13.36
2018-09-29T18:45:23.071Z,13.30
2018-09-29T18:47:52.086Z,13.21
2018-09-29T18:50:20.947Z,13.11
2018-09-29T18:52:50.300Z,13.03
2018-09-29T18:55:19.349Z,12.93
2018-09-29T18:57:48.155Z,12.84
2018-09-29T19:00:17.221Z,12.74
2018-09-29T19:02:46.230Z,12.69
2018-09-29T19:05:14.976Z,12.64
2018-09-29T19:07:43.799Z,12.56
2018-09-29T19:10:12.887Z,12.48
2018-09-29T19:12:42.240Z,12.40
2018-09-29T19:15:11.041Z,12.29
2018-09-29T19:17:40.477Z,12.19
2018-09-29T19:20:10.328Z,12.12
2018-09-29T19:22:39.057Z,12.05
2018-09-29T19:25:08.119Z,11.98
2018-09-29T19:27:36.920Z,11.92
2018-09-29T19:30:05.960Z,11.83
2018-09-29T19:32:34.987Z,11.77
2018-09-29T19:35:03.790Z,11.71
2018-09-29T19:37:32.830Z,11.63
2018-09-29T19:40:01.695Z,11.57
2018-09-29T19:42:30.451Z,11.50
2018-09-29T19:44:59.265Z,11.43
2018-09-29T19:47:28.049Z,11.36
2018-09-29T19:49:57.610Z,11.30
2018-09-29T19:52:26.569Z,11.23
2018-09-29T19:54:55.551Z,11.17
2018-09-29T19:57:24.332Z,11.10
2018-09-29T19:59:53.426Z,11.04
2018-09-29T20:02:22.535Z,11.01
2018-09-29T20:04:51.578Z,10.95
2018-09-29T20:07:20.723Z,10.88
2018-09-29T20:09:50.075Z,10.81
2018-09-29T20:12:19.044Z,10.74
2018-09-29T20:14:48.382Z,10.70
2018-09-29T20:17:17.724Z,10.67
2018-09-29T20:19:46.492Z,10.63
2018-09-29T20:22:15.586Z,10.58
2018-09-29T20:24:45.083Z,10.58
2018-09-29T20:27:13.813Z,10.57
2018-09-29T20:29:42.588Z,10.53
2018-09-29T20:32:11.311Z,10.49
2018-09-29T20:34:40.918Z,10.43
2018-09-29T20:37:09.741Z,10.38
2018-09-29T20:39:38.836Z,10.32
2018-09-29T20:42:07.873Z,10.26
2018-09-29T20:44:36.754Z,10.24
2018-09-29T20:47:05.912Z,10.19
2018-09-29T20:49:34.749Z,10.16
2018-09-29T20:52:03.824Z,10.11
2018-09-29T20:54:32.604Z,10.06
2018-09-29T20:57:01.530Z,9.99
2018-09-29T20:59:30.826Z,9.95
2018-09-29T21:01:59.556Z,9.92
2018-09-29T21:04:28.356Z,9.88
2018-09-29T21:06:57.109Z,9.85
2018-09-29T21:09:25.955Z,9.84
2018-09-29T21:11:55.038Z,9.82
2018-09-29T21:14:23.791Z,9.80
2018-09-29T21:16:52.940Z,9.74
2018-09-29T21:19:21.790Z,9.64
2018-09-29T21:21:50.598Z,9.60
2018-09-29T21:24:19.362Z,9.59
2018-09-29T21:26:48.130Z,9.53
2018-09-29T21:29:17.178Z,9.50
2018-09-29T21:31:46.378Z,9.47
2018-09-29T21:34:15.724Z,9.42
2018-09-29T21:36:44.486Z,9.39
2018-09-29T21:39:14.298Z,9.38
2018-09-29T21:41:43.721Z,9.36
2018-09-29T21:44:12.882Z,9.29
2018-09-29T21:46:41.668Z,9.24
2018-09-29T21:49:10.802Z,9.21
2018-09-29T21:51:39.575Z,9.17
2018-09-29T21:54:08.693Z,9.13
2018-09-29T21:56:37.436Z,9.09
2018-09-29T21:59:06.172Z,9.03
2018-09-29T22:01:36.209Z,8.99
2018-09-29T22:04:04.977Z,8.97
2018-09-29T22:06:33.818Z,8.95
2018-09-29T22:09:03.209Z,8.93
2018-09-29T22:11:32.007Z,8.92
2018-09-29T22:14:01.233Z,8.91
2018-09-29T22:16:30.588Z,8.91
2018-09-29T22:18:59.628Z,8.88
2018-09-29T22:21:28.709Z,8.85
2018-09-29T22:23:57.708Z,8.83
2018-09-29T22:26:26.430Z,8.80
2018-09-29T22:28:55.242Z,8.77
2018-09-29T22:31:24.680Z,8.74
2018-09-29T22:33:53.657Z,8.72
2018-09-29T22:36:22.542Z,8.69
2018-09-29T22:38:52.217Z,8.66
2018-09-29T22:41:21.074Z,8.64
2018-09-29T22:43:50.443Z,8.60
2018-09-29T22:46:20.476Z,8.57
2018-09-29T22:48:49.334Z,8.54
2018-09-29T22:51:18.160Z,8.50
2018-09-29T22:53:47.102Z,8.45
2018-09-29T22:56:15.959Z,8.41
2018-09-29T22:58:45.596Z,8.38
2018-09-29T23:01:14.525Z,8.34
2018-09-29T23:03:43.374Z,8.30
2018-09-29T23:06:12.398Z,8.29
2018-09-29T23:08:42.423Z,8.26
2018-09-29T23:11:11.244Z,8.24
2018-09-29T23:13:40.090Z,8.23
2018-09-29T23:16:09.339Z,8.23
2018-09-29T23:18:38.343Z,8.21
2018-09-29T23:21:07.762Z,8.20
2018-09-29T23:23:37.023Z,8.16
2018-09-29T23:26:06.119Z,8.14
2018-09-29T23:28:34.916Z,8.09
2018-09-29T23:31:04.031Z,8.05
2018-09-29T23:33:32.997Z,8.02
2018-09-29T23:36:02.458Z,8.00
2018-09-29T23:38:31.189Z,7.99
2018-09-29T23:41:00.635Z,7.97
2018-09-29T23:43:29.859Z,7.94
2018-09-29T23:45:58.674Z,7.90
2018-09-29T23:48:27.517Z,7.87
2018-09-29T23:50:56.378Z,7.85
2018-09-29T23:53:25.830Z,7.85
2018-09-29T23:55:55.099Z,7.84
2018-09-29T23:58:23.862Z,7.80
